KMTH/MTH METAR and TAF weather

Enter ICAO airport designator
Station Type Date Time Source
KMTH METAR 2020/01/24 02:53 UTC NOAA

KMTH 240253Z AUTO 04007KT 10SM FEW031 19/17 A3001 RMK AO2 SLP161 T01940167 51009 $


Station Type Date Time Source
KMTH Decoded METAR 2020/01/24 02:53 UTC NOAA

MARATHON AIRPORT, FL, United States (KMTH) 24-44N 81-03W 2M
Jan 23, 2020 - 09:53 PM EST / 2020.01.24 0253 UTC
Wind: from the NE (040 degrees) at 8 MPH (7 KT):0
Visibility: 10 mile(s):0
Sky conditions: mostly clear
Temperature: 66.9 F (19.4 C)
Dew Point: 62.1 F (16.7 C)
Relative Humidity: 84%
Pressure (altimeter): 30.01 in. Hg (1016 hPa)
Pressure tendency: 0.03 inches (0.9 hPa) higher than three hours ago
ob: KMTH 240253Z AUTO 04007KT 10SM FEW031 19/17 A3001 RMK AO2 SLP161 T01940167 51009
cycle: 3

Station Type Date Time Source
KMTH TAF 2020/01/23 18:51 UTC NOAA

TAF KMTH 231747Z 2318/2418 02008KT P6SM FEW025
FM232300 06006KT P6SM SCT025
FM240600 VRB05KT P6SM SCT015 BKN025
FM240800 VRB05KT 4SM BR OVC100
FM241500 VRB05KT P6SM SCT025

Example: see airport list